sensor_id;sensor_type;location;lat;lon;timestamp;pressure;altitude;pressure_sealevel;temperature;humidity
71642;BME280;60657;50.122;14.468;2023-12-28T00:01:53;98390.73412882199;;;6.299687190051117;74.13275349050126
71642;BME280;60657;50.122;14.468;2023-12-28T00:04:58;98378.45831606888;;;6.3344014648661044;74.02594033722438
71642;BME280;60657;50.122;14.468;2023-12-28T00:08:01;98378.41149571052;;;6.299687190051117;73.82757305256733
71642;BME280;60657;50.122;14.468;2023-12-28T00:11:07;98372.51291216206;;;6.2836652170595855;74.09460593575952
71642;BME280;60657;50.122;14.468;2023-12-28T00:14:10;98380.59692379822;;;6.171511406118867;74.3921568627451
71642;BME280;60657;50.122;14.468;2023-12-28T00:17:15;98382.1633949349;;;6.110093842984668;74.53330281528955
71642;BME280;60657;50.122;14.468;2023-12-28T00:20:18;98391.47032201021;;;6.235599298084992;74.3044174868391
71642;BME280;60657;50.122;14.468;2023-12-28T00:23:20;98387.49888364563;;;6.307698176546886;73.94201571679255
71642;BME280;60657;50.122;14.468;2023-12-28T00:26:23;98373.3215962124;;;6.235599298084992;74.06027313649196
71642;BME280;60657;50.122;14.468;2023-12-28T00:29:28;98376.60389447925;;;6.222247653925386;74.12321660181583
71642;BME280;60657;50.122;14.468;2023-12-28T00:32:31;98389.73171483271;;;6.216906996261542;74.06408789196612
71642;BME280;60657;50.122;14.468;2023-12-28T00:35:35;98381.42956731809;;;6.14213778896773;74.06027313649196
71642;BME280;60657;50.122;14.468;2023-12-28T00:38:39;98372.27070548071;;;6.126115815976199;74.34256504158084
71642;BME280;60657;50.122;14.468;2023-12-28T00:41:43;98369.87090193738;;;6.139467460135805;74.25864042114901
71642;BME280;60657;50.122;14.468;2023-12-28T00:44:47;98374.64442036147;;;6.056687266346231;74.51232166018158
71642;BME280;60657;50.122;14.468;2023-12-28T00:47:55;98365.4602828089;;;5.981918059052411;74.72785534447242
71642;BME280;60657;50.122;14.468;2023-12-28T00:50:58;98371.96903806111;;;5.971236743724724;74.68398565651941
71642;BME280;60657;50.122;14.468;2023-12-28T00:54:01;98367.93293994344;;;5.955214770733193;74.7145037003128
71642;BME280;60657;50.122;14.468;2023-12-28T00:57:06;98374.41576633228;;;5.9178301670862865;74.8480201419089
71642;BME280;60657;50.122;14.468;2023-12-28T01:00:11;98365.25596809317;;;5.936522468909743;74.92622262912947
71642;BME280;60657;50.122;14.468;2023-12-28T01:03:24;98366.06275094146;;;5.877775234607462;74.94529640650035
71642;BME280;60657;50.122;14.468;2023-12-28T01:06:27;98358.43745983529;;;5.7202258335240685;75.50034332799268
71642;BME280;60657;50.122;14.468;2023-12-28T01:09:31;98352.47508917235;;;5.696192874036775;75.72350652323186
71642;BME280;60657;50.122;14.468;2023-12-28T01:12:34;98357.28138360771;;;5.632104982070651;75.94666971847104
71642;BME280;60657;50.122;14.468;2023-12-28T01:15:37;98356.69231342302;;;5.701533531700619;75.72922865644313
71642;BME280;60657;50.122;14.468;2023-12-28T01:18:40;98350.18979653603;;;5.725566491187912;75.56328679331655
71642;BME280;60657;50.122;14.468;2023-12-28T01:21:43;98352.66144772159;;;5.722896162355994;75.46028839551384
71642;BME280;60657;50.122;14.468;2023-12-28T01:24:46;98363.48637631992;;;5.752269779507131;75.27718013275349
71642;BME280;60657;50.122;14.468;2023-12-28T01:27:49;98368.58674847726;;;5.8297093156328685;75.22758831158923
71642;BME280;60657;50.122;14.468;2023-12-28T01:30:52;98368.84097451375;;;5.912489509422443;74.73357747768368
71642;BME280;60657;50.122;14.468;2023-12-28T01:33:55;98388.62387135584;;;5.9178301670862865;74.49706263828489
71642;BME280;60657;50.122;14.468;2023-12-28T01:36:58;98396.95188027163;;;5.955214770733193;74.38834210727093
71642;BME280;60657;50.122;14.468;2023-12-28T01:40:01;98390.34018714805;;;5.92317082475013;74.45700770580606
71642;BME280;60657;50.122;14.468;2023-12-28T01:43:07;98386.22686979435;;;6.005951018539712;74.34256504158084
71642;BME280;60657;50.122;14.468;2023-12-28T01:46:13;98391.85260167965;;;5.869764248111693;74.68017090104524
71642;BME280;60657;50.122;14.468;2023-12-28T01:49:19;98377.97507463004;;;5.981918059052411;74.42839703974975
71642;BME280;60657;50.122;14.468;2023-12-28T01:52:25;98370.5311688491;;;5.9765774013885675;74.45700770580606
71642;BME280;60657;50.122;14.468;2023-12-28T01:55:30;98349.05821258342;;;5.944533455405505;74.40550850690471
71642;BME280;60657;50.122;14.468;2023-12-28T01:58:36;98352.13885906718;;;5.725566491187912;75.0120546272984
71642;BME280;60657;50.122;14.468;2023-12-28T02:01:42;98358.5686159536;;;5.6748302433814;75.40497444113832
71642;BME280;60657;50.122;14.468;2023-12-28T02:04:45;98359.34908602237;;;5.664148928053713;75.3935301747158
71642;BME280;60657;50.122;14.468;2023-12-28T02:07:48;98361.76831311523;;;5.6614785992217875;75.33249408712902
71642;BME280;60657;50.122;14.468;2023-12-28T02:10:51;98360.85597483738;;;5.57335774776837;75.49080643930724
71642;BME280;60657;50.122;14.468;2023-12-28T02:13:55;98355.02687657824;;;5.568017090104526;75.70824750133517
71642;BME280;60657;50.122;14.468;2023-12-28T02:17:00;98348.17572372248;;;5.429159990844589;75.83794918745708
71642;BME280;60657;50.122;14.468;2023-12-28T02:20:09;98324.353259613;;;5.442511635004195;75.95239185168231
71642;BME280;60657;50.122;14.468;2023-12-28T02:23:14;98339.09782980513;;;5.413138017853058;76.05920500495918
71642;BME280;60657;50.122;14.468;2023-12-28T02:26:18;98337.56760162245;;;5.458533607995726;75.73113603418021
71642;BME280;60657;50.122;14.468;2023-12-28T02:29:21;98340.11889914885;;;5.541313801785307;75.57473105973907
71642;BME280;60657;50.122;14.468;2023-12-28T02:32:28;98340.8981252034;;;5.554665445944913;75.37827115281911
71642;BME280;60657;50.122;14.468;2023-12-28T02:35:42;98339.25961080987;;;5.5439841306172255;75.34775310902572
71642;BME280;60657;50.122;14.468;2023-12-28T02:38:50;98340.25096838031;;;5.634775310902569;75.26192111085679
71642;BME280;60657;50.122;14.468;2023-12-28T02:41:56;98338.6381003602;;;5.576028076600288;75.23903257801175
71642;BME280;60657;50.122;14.468;2023-12-28T02:45:00;98323.78278351079;;;5.610742351415276;75.2600137331197
71642;BME280;60657;50.122;14.468;2023-12-28T02:48:06;98317.1233939592;;;5.533302815289538;75.47745479514764
71642;BME280;60657;50.122;14.468;2023-12-28T02:51:10;98303.75323392251;;;5.410467689021132;75.77500572213322
71642;BME280;60657;50.122;14.468;2023-12-28T02:54:13;98290.38322526247;;;5.298313878080414;76.5722896162356
71642;BME280;60657;50.122;14.468;2023-12-28T02:57:17;98284.47721663266;;;5.271610589761195;76.62951094834821
71642;BME280;60657;50.122;14.468;2023-12-28T03:00:20;98292.69315035787;;;5.202182040131227;76.67147325856412
71642;BME280;60657;50.122;14.468;2023-12-28T03:03:24;98292.72011930525;;;5.247577630273902;76.59708552681774
71642;BME280;60657;50.122;14.468;2023-12-28T03:06:28;98283.56422717494;;;5.188830395971621;76.5284199282826
71642;BME280;60657;50.122;14.468;2023-12-28T03:09:31;98275.2951410406;;;5.186160067139696;76.38727397573815
71642;BME280;60657;50.122;14.468;2023-12-28T03:12:34;98276.18110471067;;;5.231555657282371;76.22514686808576
71642;BME280;60657;50.122;14.468;2023-12-28T03:15:37;98292.61174438248;;;5.178149080643934;75.88372625314717
71642;BME280;60657;50.122;14.468;2023-12-28T03:18:40;98280.79266182576;;;5.108720531013965;76.34721904325933
71642;BME280;60657;50.122;14.468;2023-12-28T03:21:43;98303.32411661724;;;5.223544670786602;75.91424429694057
71642;BME280;60657;50.122;14.468;2023-12-28T03:24:46;98305.04388287333;;;5.263599603265433;75.46410315098802
71642;BME280;60657;50.122;14.468;2023-12-28T03:27:49;98309.0966457;;;5.132753490501258;75.28480964370183
71642;BME280;60657;50.122;14.468;2023-12-28T03:30:54;98310.59476669827;;;5.065995269703215;75.66247043564508
71642;BME280;60657;50.122;14.468;2023-12-28T03:33:58;98317.36703170759;;;5.25024795910582;75.10551613641566
71642;BME280;60657;50.122;14.468;2023-12-28T03:37:03;98319.11483714337;;;5.234225986114289;74.85374227512017
71642;BME280;60657;50.122;14.468;2023-12-28T03:40:07;98325.77558073544;;;5.33569848172732;74.72785534447242
71642;BME280;60657;50.122;14.468;2023-12-28T03:43:11;98325.69316936354;;;5.25024795910582;74.84992751964599
71642;BME280;60657;50.122;14.468;2023-12-28T03:46:15;98296.90889169795;;;5.317006179903871;74.68207827878233
71642;BME280;60657;50.122;14.468;2023-12-28T03:49:18;98301.04407446824;;;5.29297322041657;74.76791027695124
71642;BME280;60657;50.122;14.468;2023-12-28T03:52:22;98293.44415507033;;;5.154116121156633;75.16655222400244
71642;BME280;60657;50.122;14.468;2023-12-28T03:55:25;98291.66959894463;;;5.1113908598458835;75.4087891966125
71642;BME280;60657;50.122;14.468;2023-12-28T03:58:28;98292.44668687375;;;5.084687571526665;75.52323186083773
71642;BME280;60657;50.122;14.468;2023-12-28T04:01:32;98292.16494057135;;;4.956511787594415;76.0420386053254
71642;BME280;60657;50.122;14.468;2023-12-28T04:04:35;98298.76817745704;;;4.969863431754021;76.01342793926909
71642;BME280;60657;50.122;14.468;2023-12-28T04:07:38;98299.36865208943;;;4.86839093614099;76.37201495384146
71642;BME280;60657;50.122;14.468;2023-12-28T04:10:52;98305.16802892895;;;4.9137865262836655;76.36820019836729
71642;BME280;60657;50.122;14.468;2023-12-28T04:13:55;98304.36467522004;;;4.8630502784771465;76.37010757610437
71642;BME280;60657;50.122;14.468;2023-12-28T04:16:58;98298.41791155578;;;4.788281071183334;76.71152819104296
71642;BME280;60657;50.122;14.468;2023-12-28T04:20:01;98294.19490230255;;;4.670786602578772;77.07774471656367
71642;BME280;60657;50.122;14.468;2023-12-28T04:23:07;98293.33227672253;;;4.6787975890745415;77.0128938735027
71642;BME280;60657;50.122;14.468;2023-12-28T04:26:10;98300.61521787685;;;4.68146791790646;77.08346684977494
71642;BME280;60657;50.122;14.468;2023-12-28T04:29:15;98299.75189662594;;;4.614709697108417;77.44968337529565
71642;BME280;60657;50.122;14.468;2023-12-28T04:32:18;98295.67951862287;;;4.622720683604179;77.20935378042267
71642;BME280;60657;50.122;14.468;2023-12-28T04:35:23;98286.58037433584;;;4.523918516823073;76.85648889906157
71642;BME280;60657;50.122;14.468;2023-12-28T04:38:26;98280.7517072593;;;4.51857785915923;76.74586099031052
71642;BME280;60657;50.122;14.468;2023-12-28T04:41:31;98292.13369722466;;;4.454489967193105;76.4692912184329
71642;BME280;60657;50.122;14.468;2023-12-28T04:44:37;98309.53018194278;;;4.545281147478448;76.1316853589685
71642;BME280;60657;50.122;14.468;2023-12-28T04:47:40;98313.63246985138;;;4.59601739528496;75.88754100862134
71642;BME280;60657;50.122;14.468;2023-12-28T04:50:43;98310.54792734684;;;4.668116273746854;75.52132448310063
71642;BME280;60657;50.122;14.468;2023-12-28T04:53:46;98308.17108268735;;;4.694819562066073;75.39543755245289
71642;BME280;60657;50.122;14.468;2023-12-28T04:56:49;98317.3922924769;;;4.79095140001526;75.02159151598383
71642;BME280;60657;50.122;14.468;2023-12-28T04:59:54;98326.58351010572;;;4.83367666132601;74.59243152513923
71642;BME280;60657;50.122;14.468;2023-12-28T05:02:58;98323.42972673838;;;4.865720607309072;74.1861600671397
71642;BME280;60657;50.122;14.468;2023-12-28T05:06:01;98321.79346972166;;;4.975204089417865;74.20904859998474
71642;BME280;60657;50.122;14.468;2023-12-28T05:09:05;98321.82271916364;;;4.9431601434348025;74.03547722590982
71642;BME280;60657;50.122;14.468;2023-12-28T05:12:10;98319.14752351266;;;4.839017318989853;74.47798886091401
71642;BME280;60657;50.122;14.468;2023-12-28T05:15:13;98322.32927395933;;;4.782940413519491;74.57335774776837
71642;BME280;60657;50.122;14.468;2023-12-28T05:18:16;98335.65568317559;;;4.91111619745174;74.20332646677348
71642;BME280;60657;50.122;14.468;2023-12-28T05:21:20;98347.25722833413;;;4.895094224460209;73.84283207446403
71642;BME280;60657;50.122;14.468;2023-12-28T05:24:23;98339.99854482699;;;4.9938963912413215;73.55672541390096
71642;BME280;60657;50.122;14.468;2023-12-28T05:27:26;98348.32777437507;;;5.092698558022434;72.99404898146028
71642;BME280;60657;50.122;14.468;2023-12-28T05:30:29;98352.58012095728;;;5.132753490501258;72.87388418402381
71642;BME280;60657;50.122;14.468;2023-12-28T05:33:32;98353.52864083648;;;5.17280842298009;72.57251850156405
71642;BME280;60657;50.122;14.468;2023-12-28T05:36:36;98332.85079212875;;;5.191500724803539;72.54009308003357
71642;BME280;60657;50.122;14.468;2023-12-28T05:39:39;98345.08383975334;;;5.057984283207446;72.89105058365759
71642;BME280;60657;50.122;14.468;2023-12-28T05:42:42;98339.22437874308;;;5.06332494087129;73.06843671320668
71642;BME280;60657;50.122;14.468;2023-12-28T05:45:45;98340.71304869317;;;4.9725337605859465;73.13138017853056
71642;BME280;60657;50.122;14.468;2023-12-28T05:48:48;98335.71548080014;;;4.95384145876249;73.14282444495308
71642;BME280;60657;50.122;14.468;2023-12-28T05:51:51;98343.86494378948;;;4.919127183947509;72.85481040665293
71642;BME280;60657;50.122;14.468;2023-12-28T05:54:55;98346.45422528492;;;4.940489814602884;72.84145876249332
71642;BME280;60657;50.122;14.468;2023-12-28T05:58:02;98360.46554273527;;;4.983215075913634;72.95971618219272
71642;BME280;60657;50.122;14.468;2023-12-28T06:01:06;98356.42052073928;;;4.999237048905165;72.73464560921644
71642;BME280;60657;50.122;14.468;2023-12-28T06:04:09;98355.61738344528;;;5.015259021896696;72.54772259098192
71642;BME280;60657;50.122;14.468;2023-12-28T06:07:13;98338.2736629;;;4.985885404745552;72.49622339208057
71642;BME280;60657;50.122;14.468;2023-12-28T06:10:16;98336.72574880734;;;5.007248035400934;72.17578393224994
71642;BME280;60657;50.122;14.468;2023-12-28T06:13:29;98327.44614942625;;;4.844357976653697;72.15671015487908
71642;BME280;60657;50.122;14.468;2023-12-28T06:16:32;98337.14026882192;;;4.772259098191803;72.62020294499122
71642;BME280;60657;50.122;14.468;2023-12-28T06:19:36;98334.91234920867;;;4.927138170443271;72.34172579537652
71642;BME280;60657;50.122;14.468;2023-12-28T06:22:39;98340.62337557714;;;4.889753566796365;72.71747920958266
71642;BME280;60657;50.122;14.468;2023-12-28T06:25:42;98338.92738080291;;;4.919127183947509;72.75181200885024
71642;BME280;60657;50.122;14.468;2023-12-28T06:28:45;98345.6511595943;;;4.975204089417865;72.21583886472877
71642;BME280;60657;50.122;14.468;2023-12-28T06:31:49;98355.70661252672;;;5.06332494087129;71.42618448157474
71642;BME280;60657;50.122;14.468;2023-12-28T06:34:52;98354.15847182753;;;5.124742504005496;70.78721293965057
71642;BME280;60657;50.122;14.468;2023-12-28T06:37:56;98335.51858431034;;;5.25024795910582;69.47302967879759
71642;BME280;60657;50.122;14.468;2023-12-28T06:40:59;98333.96451237639;;;5.2876325627527265;68.77492942702372
71642;BME280;60657;50.122;14.468;2023-12-28T06:44:02;98332.43657831723;;;5.3463797970550075;68.60135805294881
71642;BME280;60657;50.122;14.468;2023-12-28T06:47:07;98328.4358518002;;;5.458533607995726;67.98527504386969
71642;BME280;60657;50.122;14.468;2023-12-28T06:50:11;98331.84615785183;;;5.471885252155339;67.84031433585108
71642;BME280;60657;50.122;14.468;2023-12-28T06:53:14;98325.13241206226;;;5.469214923323413;68.36865796902418
71642;BME280;60657;50.122;14.468;2023-12-28T06:56:17;98332.5180421728;;;5.410467689021132;67.70107576104371
71642;BME280;60657;50.122;14.468;2023-12-28T06:59:20;98331.01359775128;;;5.437170977340351;67.67818722819867
71642;BME280;60657;50.122;14.468;2023-12-28T07:02:24;98331.01359775128;;;5.458533607995726;67.85557335774777
71642;BME280;60657;50.122;14.468;2023-12-28T07:05:27;98321.9615833798;;;5.458533607995726;67.96047913328755
71642;BME280;60657;50.122;14.468;2023-12-28T07:08:30;98322.14367560075;;;5.568017090104526;67.69916838330663
71642;BME280;60657;50.122;14.468;2023-12-28T07:11:34;98318.08399417739;;;5.626764324406807;67.81742580300603
71642;BME280;60657;50.122;14.468;2023-12-28T07:14:38;98332.45907949965;;;5.816357671473256;67.115510795758
71642;BME280;60657;50.122;14.468;2023-12-28T07:17:41;98344.3995856244;;;6.0860608834973675;66.14084077210651
71642;BME280;60657;50.122;14.468;2023-12-28T07:20:44;98341.5008636328;;;6.449225604638741;64.72175173571374
71642;BME280;60657;50.122;14.468;2023-12-28T07:23:48;98347.05226529203;;;6.865796902418552;65.21957732509347
71642;BME280;60657;50.122;14.468;2023-12-28T07:26:51;98349.12566287;;;7.204928664072632;63.209201190203714
71642;BME280;60657;50.122;14.468;2023-12-28T07:29:54;98339.67119824635;;;7.6241702906843685;61.80727855344472
71642;BME280;60657;50.122;14.468;2023-12-28T07:32:57;98339.98312865074;;;8.000686655985355;58.12413214312963
71642;BME280;60657;50.122;14.468;2023-12-28T07:36:01;98336.07596452183;;;8.259708552681772;56.57343404287785
71642;BME280;60657;50.122;14.468;2023-12-28T07:39:10;98332.1167791478;;;8.476005188067447;55.47096971084154
71642;BME280;60657;50.122;14.468;2023-12-28T07:42:13;98337.89211206208;;;8.39589532310979;55.644541084916455
71642;BME280;60657;50.122;14.468;2023-12-28T07:45:16;98342.8357594141;;;8.427939269092853;55.98596169985504
71642;BME280;60657;50.122;14.468;2023-12-28T07:48:19;98343.60112188294;;;8.353170061799041;56.401770046540015
71642;BME280;60657;50.122;14.468;2023-12-28T07:51:22;98333.73742086743;;;8.467994201571678;55.95925841153582
71642;BME280;60657;50.122;14.468;2023-12-28T07:54:26;98338.76399280838;;;8.540093080033571;55.85435263599603
71642;BME280;60657;50.122;14.468;2023-12-28T07:57:29;98351.17745707619;;;8.508049134050509;56.178606851300835
71642;BME280;60657;50.122;14.468;2023-12-28T08:00:32;98353.70113978401;;;8.572137026016634;56.447547112230104
71642;BME280;60657;50.122;14.468;2023-12-28T08:03:36;98358.66701267216;;;8.545433737697415;55.95925841153582
71642;BME280;60657;50.122;14.468;2023-12-28T08:06:39;98359.47751928073;;;8.502708476386665;55.68650339513237
71642;BME280;60657;50.122;14.468;2023-12-28T08:09:42;98328.72002248475;;;8.387884336614022;56.3598077363241
71642;BME280;60657;50.122;14.468;2023-12-28T08:12:46;98335.34604908695;;;8.419928282597084;56.55817502098115
71642;BME280;60657;50.122;14.468;2023-12-28T08:15:49;98356.85369718798;;;8.273060196841385;56.86335545891508
71642;BME280;60657;50.122;14.468;2023-12-28T08:18:52;98353.54048376427;;;8.334477759975584;57.09414816510262
71642;BME280;60657;50.122;14.468;2023-12-28T08:21:56;98332.79765131354;;;8.27038986800946;57.30205233844511
71642;BME280;60657;50.122;14.468;2023-12-28T08:24:59;98351.0241927137;;;8.265049210345616;57.643472953383686
71642;BME280;60657;50.122;14.468;2023-12-28T08:28:06;98355.99956838861;;;8.315785458152135;57.878080415045396
71642;BME280;60657;50.122;14.468;2023-12-28T08:31:10;98351.90077762099;;;8.350499732967116;57.288700694285495
71642;BME280;60657;50.122;14.468;2023-12-28T08:34:13;98341.96126094228;;;8.315785458152135;57.23529411764706
71642;BME280;60657;50.122;14.468;2023-12-28T08:37:17;98339.45705876795;;;8.281071183337147;58.08598458838789
71642;BME280;60657;50.122;14.468;2023-12-28T08:40:22;98337.83900501697;;;8.401235980773635;59.17318989852751
71642;BME280;60657;50.122;14.468;2023-12-28T08:43:25;98351.10289348992;;;8.492027161058978;59.86175326161593
71642;BME280;60657;50.122;14.468;2023-12-28T08:46:29;98370.20793247383;;;8.529411764705884;60.1306935225452
71642;BME280;60657;50.122;14.468;2023-12-28T08:49:32;98371.10253597843;;;8.614862287327384;61.0290684367132
71642;BME280;60657;50.122;14.468;2023-12-28T08:52:35;98372.02302140604;;;8.745708400091551;60.96803234912642
71642;BME280;60657;50.122;14.468;2023-12-28T08:55:39;98364.59992853616;;;8.75371938658732;60.832608529793234
71642;BME280;60657;50.122;14.468;2023-12-28T08:58:42;98349.84858338708;;;9.084840161745632;58.27672236209659
71642;BME280;60657;50.122;14.468;2023-12-28T09:01:45;98349.12751885517;;;9.357213702601662;58.47318226901656
71642;BME280;60657;50.122;14.468;2023-12-28T09:04:51;98350.83653512313;;;9.474708171206224;57.87045090409705
71642;BME280;60657;50.122;14.468;2023-12-28T09:07:54;98345.10987775026;;;9.789806973373004;57.74265659571221
71642;BME280;60657;50.122;14.468;2023-12-28T09:10:57;98355.10439832824;;;10.038147554741741;57.35736629282063
71642;BME280;60657;50.122;14.468;2023-12-28T09:14:01;98361.75949701719;;;10.182345311665522;57.084611276417185
71642;BME280;60657;50.122;14.468;2023-12-28T09:17:08;98352.63887451198;;;10.307850766765853;56.81757839322499
71642;BME280;60657;50.122;14.468;2023-12-28T09:20:12;98357.62006707925;;;10.444037537193864;56.98352025635157
71642;BME280;60657;50.122;14.468;2023-12-28T09:23:15;98349.31744649369;;;10.508125429159989;57.19905394064241
71642;BME280;60657;50.122;14.468;2023-12-28T09:26:19;98365.08964657223;;;10.411993591210802;57.30395971618219
71642;BME280;60657;50.122;14.468;2023-12-28T09:29:23;98365.08834079505;;;10.537499046311133;57.52521553368429
71642;BME280;60657;50.122;14.468;2023-12-28T09:32:26;98347.64927359582;;;10.550850690470739;57.98489356832227
71642;BME280;60657;50.122;14.468;2023-12-28T09:35:30;98317.7292568729;;;10.809872587167163;57.057907988097966
71642;BME280;60657;50.122;14.468;2023-12-28T09:38:34;98329.34794991942;;;10.79652094300755;57.103685053788055
71642;BME280;60657;50.122;14.468;2023-12-28T09:41:39;98336.81670804272;;;10.772487983520257;57.382162203402764
71642;BME280;60657;50.122;14.468;2023-12-28T09:44:45;98332.66597427423;;;10.82055390249485;57.1551842526894
71642;BME280;60657;50.122;14.468;2023-12-28T09:47:58;98330.97943132532;;;10.88998245212482;56.70695048447394
71642;BME280;60657;50.122;14.468;2023-12-28T09:51:02;98330.98317074477;;;10.943389028763256;57.111314564736404
71642;BME280;60657;50.122;14.468;2023-12-28T09:54:13;98330.97169612824;;;10.919356069275956;57.233386739909974
71642;BME280;60657;50.122;14.468;2023-12-28T09:57:16;98332.62242381393;;;10.986114290074006;57.736934462500955
71642;BME280;60657;50.122;14.468;2023-12-28T10:00:21;98333.42068088424;;;11.140993362325474;57.670176241702904
71642;BME280;60657;50.122;14.468;2023-12-28T10:03:27;98330.907975195;;;11.17837796597238;58.26718547341116
71642;BME280;60657;50.122;14.468;2023-12-28T10:06:31;98343.38730235625;;;11.173037308308537;58.082169832913706
71642;BME280;60657;50.122;14.468;2023-12-28T10:09:34;98343.38265895192;;;11.17837796597238;57.717860685130084
71642;BME280;60657;50.122;14.468;2023-12-28T10:12:37;98331.75236034997;;;11.138323033493556;58.166094453345536
71642;BME280;60657;50.122;14.468;2023-12-28T10:15:41;98328.43992786529;;;11.10093842984665;59.12169069962616
71642;BME280;60657;50.122;14.468;2023-12-28T10:18:45;98355.00421991103;;;11.199740596627755;59.14076447699702
71642;BME280;60657;50.122;14.468;2023-12-28T10:21:49;98356.63369487542;;;11.3145647364004;59.27237354085604
71642;BME280;60657;50.122;14.468;2023-12-28T10:24:52;98361.62064801733;;;11.346608682383462;59.623331044480054
71642;BME280;60657;50.122;14.468;2023-12-28T10:27:55;98355.76021686991;;;11.41603723201343;59.35820553902495
71642;BME280;60657;50.122;14.468;2023-12-28T10:30:59;98351.57711236297;;;11.456092164492254;59.1598382543679
71642;BME280;60657;50.122;14.468;2023-12-28T10:34:02;98331.6437674929;;;11.432059205004961;59.16174563210498
71642;BME280;60657;50.122;14.468;2023-12-28T10:37:07;98335.76945989521;;;11.514839398794535;58.90424963759823
71642;BME280;60657;50.122;14.468;2023-12-28T10:40:12;98333.30857990382;;;11.394674601358055;59.27809567406729
71642;BME280;60657;50.122;14.468;2023-12-28T10:43:19;98346.60146739407;;;11.488136110475317;58.90806439307241
71642;BME280;60657;50.122;14.468;2023-12-28T10:46:27;98324.96338903034;;;11.546883344777598;59.016784924086366
71642;BME280;60657;50.122;14.468;2023-12-28T10:49:33;98324.94183514825;;;11.573586633096816;58.99389639124132
71642;BME280;60657;50.122;14.468;2023-12-28T10:52:44;98322.46200421112;;;11.552224002441442;58.75738155184253
71642;BME280;60657;50.122;14.468;2023-12-28T10:56:00;98321.63297793531;;;11.51750972762646;58.475089646753645
71642;BME280;60657;50.122;14.468;2023-12-28T10:59:23;98334.11795302363;;;11.52018005645838;58.446478980697336
71642;BME280;60657;50.122;14.468;2023-12-28T11:02:38;98347.4244175142;;;11.498817425803004;59.73014419775693
71642;BME280;60657;50.122;14.468;2023-12-28T11:05:51;98331.67534049372;;;11.386663614862286;59.875104905775544
71642;BME280;60657;50.122;14.468;2023-12-28T11:09:01;98329.18165425227;;;11.375982299534598;58.72877088578622
71642;BME280;60657;50.122;14.468;2023-12-28T11:12:13;98328.34628786096;;;11.386663614862286;58.80125123979553